createdAt,value
2023-05-06T00:00:49.914Z,248.24
2023-05-06T00:01:49.948Z,248.24
2023-05-06T00:02:49.937Z,247.26
2023-05-06T00:03:50.030Z,247.69
2023-05-06T00:04:49.923Z,246.68
2023-05-06T00:05:49.861Z,246.79
2023-05-06T00:06:49.901Z,247.37
2023-05-06T00:07:49.838Z,246.45
2023-05-06T00:08:49.861Z,247.15
2023-05-06T00:09:49.843Z,246.86
2023-05-06T00:10:49.823Z,246.90
2023-05-06T00:11:49.811Z,247.18
2023-05-06T00:12:49.879Z,248.02
2023-05-06T00:13:49.841Z,248.54
2023-05-06T00:14:49.880Z,248.74
2023-05-06T00:15:49.913Z,247.52
2023-05-06T00:16:49.938Z,250.00
2023-05-06T00:17:50.016Z,247.69
2023-05-06T00:18:50.002Z,249.01
2023-05-06T00:19:50.014Z,248.33
2023-05-06T00:20:50.054Z,249.62
2023-05-06T00:21:50.083Z,250.54
2023-05-06T00:22:50.139Z,248.40
2023-05-06T00:23:50.155Z,247.88
2023-05-06T00:24:50.169Z,247.74
2023-05-06T00:25:50.214Z,248.66
2023-05-06T00:26:50.278Z,246.87
2023-05-06T00:27:50.286Z,247.23
2023-05-06T00:28:50.299Z,247.63
2023-05-06T00:29:50.343Z,247.58
2023-05-06T00:30:50.375Z,247.65
2023-05-06T00:31:50.540Z,248.14
2023-05-06T00:32:50.477Z,250.01
2023-05-06T00:33:50.520Z,247.82
2023-05-06T00:34:50.505Z,248.11
2023-05-06T00:35:50.531Z,248.95
2023-05-06T00:36:50.580Z,248.01
2023-05-06T00:37:50.614Z,246.64
2023-05-06T00:38:50.637Z,249.51
2023-05-06T00:39:50.692Z,249.54
2023-05-06T00:40:50.708Z,248.26
2023-05-06T00:41:50.758Z,248.56
2023-05-06T00:42:50.768Z,248.15
2023-05-06T00:43:50.828Z,248.20
2023-05-06T00:44:50.847Z,249.27
2023-05-06T00:45:50.914Z,247.68
2023-05-06T00:46:50.894Z,247.76
2023-05-06T00:47:50.947Z,247.62
2023-05-06T00:48:50.963Z,245.62
2023-05-06T00:49:51.010Z,247.00
2023-05-06T00:51:36.718Z,25.00
2023-05-06T00:52:36.711Z,25.00
2023-05-06T00:53:36.721Z,25.00
2023-05-06T00:54:36.711Z,25.00
2023-05-06T00:55:36.729Z,25.00
2023-05-06T00:56:36.699Z,27.58
2023-05-06T00:57:36.676Z,30.43
2023-05-06T00:58:36.674Z,26.41
2023-05-06T00:59:36.675Z,32.28
2023-05-06T01:00:36.668Z,28.60
2023-05-06T01:01:36.671Z,36.25
2023-05-06T01:02:46.400Z,30.91
2023-05-06T01:03:37.729Z,31.43
2023-05-06T01:04:36.671Z,32.66
2023-05-06T01:05:36.665Z,38.18
2023-05-06T01:06:36.610Z,41.48
2023-05-06T01:07:36.609Z,44.24
2023-05-06T01:08:36.594Z,49.44
2023-05-06T01:09:36.607Z,52.07
2023-05-06T01:10:36.602Z,42.23
2023-05-06T01:11:36.610Z,42.45
2023-05-06T01:12:36.577Z,44.39
2023-05-06T01:13:36.564Z,42.71
2023-05-06T01:14:36.577Z,37.13
2023-05-06T01:15:36.549Z,42.12
2023-05-06T01:16:36.591Z,36.61
2023-05-06T01:17:36.592Z,31.57
2023-05-06T01:18:36.640Z,33.85
2023-05-06T01:19:36.695Z,30.89
2023-05-06T01:20:36.707Z,41.22
2023-05-06T01:21:36.765Z,40.47
2023-05-06T01:22:36.794Z,38.08
2023-05-06T01:23:36.830Z,28.45
2023-05-06T01:24:36.875Z,28.63
2023-05-06T01:25:36.932Z,27.48
2023-05-06T01:26:36.945Z,31.83
2023-05-06T01:27:36.978Z,32.24
2023-05-06T01:28:37.021Z,27.16
2023-05-06T01:29:37.058Z,38.44
2023-05-06T01:30:37.084Z,30.45
2023-05-06T01:31:37.301Z,30.37
2023-05-06T01:32:37.195Z,30.41
2023-05-06T01:33:37.214Z,36.87
2023-05-06T01:34:37.231Z,34.95
2023-05-06T01:35:37.264Z,40.62
2023-05-06T01:36:37.312Z,35.85
2023-05-06T01:37:37.406Z,32.83
2023-05-06T01:38:37.406Z,40.48
2023-05-06T01:39:37.427Z,31.02
2023-05-06T01:40:37.483Z,31.17
2023-05-06T01:41:37.506Z,31.36
2023-05-06T01:42:37.571Z,30.32
2023-05-06T01:43:37.600Z,36.12
2023-05-06T01:44:37.626Z,32.69
2023-05-06T01:45:37.667Z,31.27
2023-05-06T01:46:37.763Z,31.18
2023-05-06T01:47:37.818Z,29.83
2023-05-06T01:48:37.835Z,35.72
2023-05-06T01:49:37.836Z,37.58
2023-05-06T01:50:37.877Z,34.68
2023-05-06T01:51:37.932Z,25.00
2023-05-06T01:52:37.942Z,25.00
2023-05-06T01:53:38.002Z,26.09
2023-05-06T01:54:38.048Z,28.07
2023-05-06T01:55:38.106Z,32.25
2023-05-06T01:56:38.131Z,25.00
2023-05-06T01:57:38.200Z,30.66
2023-05-06T01:58:38.223Z,32.67
2023-05-06T01:59:38.256Z,33.49
2023-05-06T02:00:38.295Z,32.69
2023-05-06T02:01:38.457Z,32.70
2023-05-06T02:02:38.478Z,31.37
2023-05-06T02:03:38.603Z,31.48
2023-05-06T02:04:38.483Z,35.85
2023-05-06T02:05:38.532Z,25.00
2023-05-06T02:06:38.571Z,34.07
2023-05-06T02:07:38.617Z,25.00
2023-05-06T02:08:38.661Z,28.06
2023-05-06T02:09:38.773Z,26.23
2023-05-06T02:10:38.747Z,24.18
2023-05-06T02:11:38.765Z,23.16
2023-05-06T02:12:38.848Z,25.21
2023-05-06T02:13:38.860Z,31.87
2023-05-06T02:14:38.918Z,39.71
2023-05-06T02:15:38.970Z,34.23
2023-05-06T02:16:39.025Z,38.98
2023-05-06T02:17:39.089Z,37.86
2023-05-06T02:18:39.121Z,36.51
2023-05-06T02:19:39.177Z,30.25
2023-05-06T02:20:39.211Z,37.10
2023-05-06T02:21:39.245Z,32.64
2023-05-06T02:22:39.313Z,33.88
2023-05-06T02:23:39.366Z,34.90
2023-05-06T02:24:39.422Z,32.08
2023-05-06T02:25:39.512Z,50.72
2023-05-06T02:26:39.520Z,40.01
2023-05-06T02:27:39.567Z,45.86
2023-05-06T02:28:39.633Z,44.89
2023-05-06T02:29:39.691Z,45.50
2023-05-06T02:30:39.773Z,51.97
2023-05-06T02:31:39.921Z,50.30
2023-05-06T02:32:39.917Z,59.00
2023-05-06T02:33:39.875Z,58.43
2023-05-06T02:34:39.938Z,61.28
2023-05-06T02:35:39.980Z,64.51
2023-05-06T02:36:40.054Z,56.44
2023-05-06T02:37:40.058Z,62.55
2023-05-06T02:38:40.149Z,68.39
2023-05-06T02:39:40.210Z,61.61
2023-05-06T02:40:40.229Z,68.61
2023-05-06T02:41:40.326Z,59.77
2023-05-06T02:42:40.376Z,68.92
2023-05-06T02:43:40.402Z,70.76
2023-05-06T02:44:40.420Z,68.42
2023-05-06T02:45:40.502Z,67.51
2023-05-06T02:46:40.525Z,60.24
2023-05-06T02:47:40.690Z,67.17
2023-05-06T02:48:40.619Z,60.40
2023-05-06T02:49:40.684Z,67.64
2023-05-06T02:50:40.727Z,75.62
2023-05-06T02:51:40.773Z,81.17
2023-05-06T02:52:40.835Z,75.31
2023-05-06T02:53:40.886Z,79.05
2023-05-06T02:54:40.938Z,71.39
2023-05-06T02:55:40.998Z,77.13
2023-05-06T02:56:41.026Z,81.77
2023-05-06T02:57:41.140Z,76.72
2023-05-06T02:58:41.160Z,86.04
2023-05-06T02:59:41.209Z,85.14
2023-05-06T03:00:41.253Z,82.15
2023-05-06T03:01:41.313Z,85.07
2023-05-06T03:02:41.384Z,83.96
2023-05-06T03:03:41.401Z,88.29
2023-05-06T03:04:41.481Z,88.82
2023-05-06T03:05:41.520Z,92.60
2023-05-06T03:06:41.579Z,91.99
2023-05-06T03:07:41.640Z,92.28
2023-05-06T03:08:41.677Z,97.52
2023-05-06T03:09:41.718Z,96.75
2023-05-06T03:10:41.768Z,82.87
2023-05-06T03:11:41.844Z,103.35
2023-05-06T03:12:41.908Z,101.92
2023-05-06T03:13:42.083Z,112.05
2023-05-06T03:14:41.971Z,108.40
2023-05-06T03:15:42.032Z,108.37
2023-05-06T03:16:42.117Z,103.70
2023-05-06T03:17:42.191Z,112.87
2023-05-06T03:18:42.192Z,111.67
2023-05-06T03:19:42.236Z,118.01
2023-05-06T03:20:42.319Z,100.44
2023-05-06T03:21:42.404Z,107.41
2023-05-06T03:22:42.543Z,108.02
2023-05-06T03:23:42.890Z,113.06
2023-05-06T03:24:42.525Z,114.66
2023-05-06T03:25:42.582Z,109.65
2023-05-06T03:26:42.618Z,110.06
2023-05-06T03:27:42.679Z,118.44
2023-05-06T03:28:42.738Z,112.26
2023-05-06T03:29:42.846Z,109.36
2023-05-06T03:30:42.872Z,107.93
2023-05-06T03:31:42.961Z,116.32
2023-05-06T03:32:43.056Z,104.23
2023-05-06T03:33:43.087Z,112.07
2023-05-06T03:34:43.216Z,110.30
2023-05-06T03:35:43.137Z,108.31
2023-05-06T03:36:43.191Z,120.07
2023-05-06T03:37:43.245Z,107.88
2023-05-06T03:38:43.288Z,120.21
2023-05-06T03:39:43.353Z,117.56
2023-05-06T03:40:43.454Z,126.69
2023-05-06T03:41:43.477Z,127.18
2023-05-06T03:42:43.514Z,125.69
2023-05-06T03:43:43.591Z,125.41
2023-05-06T03:44:43.649Z,121.85
2023-05-06T03:45:43.758Z,130.85
2023-05-06T03:46:43.784Z,126.56
2023-05-06T03:47:43.849Z,130.76
2023-05-06T03:48:43.877Z,132.75
2023-05-06T03:49:43.928Z,125.34
2023-05-06T03:50:43.996Z,133.52
2023-05-06T03:51:44.062Z,136.01
2023-05-06T03:52:44.129Z,136.52
2023-05-06T03:53:44.169Z,133.42
2023-05-06T03:54:44.244Z,129.69
2023-05-06T03:55:44.278Z,131.92
2023-05-06T03:56:44.359Z,137.72
2023-05-06T03:57:44.409Z,138.82
2023-05-06T03:58:44.461Z,134.52
2023-05-06T03:59:44.546Z,142.09
2023-05-06T04:00:44.590Z,134.10
2023-05-06T04:01:44.783Z,143.71
2023-05-06T04:02:44.719Z,140.44
2023-05-06T04:03:44.812Z,146.93
2023-05-06T04:04:44.836Z,133.68
2023-05-06T04:05:44.875Z,144.93
2023-05-06T04:06:44.953Z,143.64
2023-05-06T04:07:45.052Z,144.19
2023-05-06T04:08:45.065Z,149.60
2023-05-06T04:09:45.127Z,150.07
2023-05-06T04:10:45.180Z,147.52
2023-05-06T04:11:45.285Z,154.85
2023-05-06T04:12:45.323Z,152.22
2023-05-06T04:13:45.358Z,159.74
2023-05-06T04:14:45.416Z,150.68
2023-05-06T04:15:45.461Z,148.30
2023-05-06T04:16:45.638Z,152.23
2023-05-06T04:17:45.654Z,153.01
2023-05-06T04:18:45.669Z,153.45
2023-05-06T04:19:45.699Z,157.45
2023-05-06T04:20:45.765Z,151.65
2023-05-06T04:21:45.816Z,149.17
2023-05-06T04:22:45.893Z,155.70
2023-05-06T04:23:45.969Z,163.62
2023-05-06T04:24:45.994Z,160.22
2023-05-06T04:25:46.087Z,160.83
2023-05-06T04:26:46.158Z,165.80
2023-05-06T04:27:46.207Z,160.55
2023-05-06T04:28:46.282Z,171.44
2023-05-06T04:29:46.369Z,169.62
2023-05-06T04:30:46.433Z,164.84
2023-05-06T04:31:46.551Z,170.16
2023-05-06T04:32:46.600Z,168.16
2023-05-06T04:33:46.606Z,170.11
2023-05-06T04:34:46.630Z,162.03
2023-05-06T04:35:46.696Z,166.66
2023-05-06T04:36:46.772Z,168.81
2023-05-06T04:37:46.813Z,170.82
2023-05-06T04:38:46.876Z,170.54
2023-05-06T04:39:46.936Z,169.55
2023-05-06T04:40:47.009Z,176.20
2023-05-06T04:41:47.048Z,172.16
2023-05-06T04:42:47.112Z,168.69
2023-05-06T04:43:47.173Z,171.07
2023-05-06T04:44:47.211Z,166.59
2023-05-06T04:45:47.275Z,164.95
2023-05-06T04:46:47.324Z,172.41
2023-05-06T04:47:47.406Z,174.00
2023-05-06T04:48:47.440Z,165.13
2023-05-06T04:49:47.504Z,167.88
2023-05-06T04:50:47.559Z,166.08
2023-05-06T04:51:47.633Z,172.95
2023-05-06T04:52:47.698Z,170.47
2023-05-06T04:53:47.756Z,170.16
2023-05-06T04:54:47.801Z,174.14
2023-05-06T04:55:47.882Z,172.40
2023-05-06T04:56:47.897Z,168.79
2023-05-06T04:57:47.996Z,166.40
2023-05-06T04:58:48.027Z,164.58
2023-05-06T04:59:48.097Z,162.25
2023-05-06T05:00:48.145Z,167.77
2023-05-06T05:01:48.243Z,165.28
2023-05-06T05:02:48.426Z,166.45
2023-05-06T05:03:48.413Z,168.95
2023-05-06T05:04:48.420Z,158.64
2023-05-06T05:05:48.514Z,160.40
2023-05-06T05:06:48.532Z,161.21
2023-05-06T05:07:48.602Z,163.96
2023-05-06T05:08:48.653Z,166.70
2023-05-06T05:09:48.716Z,155.00
2023-05-06T05:10:48.775Z,158.19
2023-05-06T05:11:48.809Z,160.28
2023-05-06T05:12:48.924Z,156.15
2023-05-06T05:13:48.946Z,150.37
2023-05-06T05:14:49.004Z,152.80
2023-05-06T05:15:49.055Z,157.24
2023-05-06T05:16:49.140Z,152.62
2023-05-06T05:17:49.208Z,155.49
2023-05-06T05:18:49.233Z,156.48
2023-05-06T05:19:49.278Z,158.84
2023-05-06T05:20:49.434Z,155.27
2023-05-06T05:21:49.400Z,147.47
2023-05-06T05:22:49.454Z,143.13
2023-05-06T05:23:49.500Z,138.92
2023-05-06T05:24:49.552Z,149.42
2023-05-06T05:25:49.615Z,134.43
2023-05-06T05:26:49.667Z,138.63
2023-05-06T05:27:49.748Z,137.93
2023-05-06T05:28:49.810Z,130.38
2023-05-06T05:29:49.863Z,125.65
2023-05-06T05:30:49.959Z,128.32
2023-05-06T05:31:50.053Z,110.85
2023-05-06T05:32:50.083Z,115.61
2023-05-06T05:33:50.187Z,105.37
2023-05-06T05:34:50.155Z,111.27
2023-05-06T05:35:50.200Z,121.18
2023-05-06T05:36:50.275Z,119.19
2023-05-06T05:37:50.376Z,121.28
2023-05-06T05:38:50.398Z,124.02
2023-05-06T05:39:50.449Z,126.43
2023-05-06T05:40:50.545Z,128.41
2023-05-06T05:41:50.552Z,128.15
2023-05-06T05:42:50.624Z,140.82
2023-05-06T05:43:50.685Z,136.43
2023-05-06T05:44:50.724Z,144.77
2023-05-06T05:45:50.783Z,149.37
2023-05-06T05:46:50.917Z,152.18
2023-05-06T05:47:50.909Z,152.02
2023-05-06T05:48:50.984Z,153.49
2023-05-06T05:49:51.019Z,152.84
2023-05-06T05:50:51.111Z,161.74
2023-05-06T05:51:51.144Z,155.91
2023-05-06T05:52:51.185Z,156.16
2023-05-06T05:53:51.313Z,159.96
2023-05-06T05:54:51.324Z,168.86
2023-05-06T05:55:51.358Z,161.61
2023-05-06T05:56:51.431Z,171.72
2023-05-06T05:57:51.457Z,169.98
2023-05-06T05:58:51.531Z,161.69
2023-05-06T05:59:51.574Z,172.38
2023-05-06T06:00:51.624Z,166.08
2023-05-06T06:01:51.708Z,169.09
2023-05-06T06:02:51.879Z,165.33
2023-05-06T06:03:52.120Z,172.37
2023-05-06T06:04:51.967Z,166.57
2023-05-06T06:05:51.925Z,166.02
2023-05-06T06:06:51.957Z,166.98
2023-05-06T06:07:52.107Z,164.69
2023-05-06T06:08:52.095Z,172.16
2023-05-06T06:09:52.154Z,163.01
2023-05-06T06:10:52.211Z,165.80
2023-05-06T06:11:52.260Z,168.77
2023-05-06T06:12:52.353Z,169.56
2023-05-06T06:13:52.370Z,168.48
2023-05-06T06:14:52.414Z,173.34
2023-05-06T06:15:52.531Z,180.55
2023-05-06T06:16:52.539Z,179.25
2023-05-06T06:17:52.618Z,174.11
2023-05-06T06:18:52.675Z,173.86
2023-05-06T06:19:52.729Z,173.69
2023-05-06T06:20:53.648Z,177.25
2023-05-06T06:21:52.809Z,172.53
2023-05-06T06:22:52.862Z,172.86
2023-05-06T06:23:52.916Z,172.17
2023-05-06T06:24:52.982Z,170.36
2023-05-06T06:25:53.102Z,162.00
2023-05-06T06:26:53.078Z,161.00
2023-05-06T06:27:53.153Z,166.87
2023-05-06T06:28:53.206Z,160.09
2023-05-06T06:29:53.253Z,155.67
2023-05-06T06:30:53.306Z,151.78
2023-05-06T06:31:53.335Z,152.79
2023-05-06T06:32:53.395Z,152.05
2023-05-06T06:33:53.420Z,161.42
2023-05-06T06:34:53.491Z,168.28
2023-05-06T06:35:53.536Z,174.81
2023-05-06T06:36:53.596Z,171.65
2023-05-06T06:37:53.636Z,171.04
2023-05-06T06:38:53.660Z,172.66
2023-05-06T06:39:53.716Z,179.21
2023-05-06T06:40:53.783Z,185.09
2023-05-06T06:41:53.816Z,180.61
2023-05-06T06:42:53.896Z,179.35
2023-05-06T06:43:53.976Z,180.69
2023-05-06T06:44:54.000Z,183.44
2023-05-06T06:45:54.058Z,186.90
2023-05-06T06:46:54.070Z,186.01
2023-05-06T06:47:54.102Z,188.07
2023-05-06T06:48:54.120Z,190.28
2023-05-06T06:49:54.175Z,184.67
2023-05-06T06:50:54.256Z,186.35
2023-05-06T06:51:54.242Z,187.75
2023-05-06T06:52:54.287Z,194.75
2023-05-06T06:53:54.325Z,192.43
2023-05-06T06:54:54.355Z,192.68
2023-05-06T06:55:54.468Z,195.81
2023-05-06T06:56:54.443Z,192.19
2023-05-06T06:57:54.490Z,190.78
2023-05-06T06:58:54.529Z,186.02
2023-05-06T06:59:54.532Z,183.05
2023-05-06T07:00:54.629Z,186.92
2023-05-06T07:01:54.592Z,182.92
2023-05-06T07:02:54.723Z,179.94
2023-05-06T07:03:54.723Z,174.83
2023-05-06T07:04:54.735Z,173.90
2023-05-06T07:05:54.757Z,167.38
2023-05-06T07:06:54.783Z,169.88
2023-05-06T07:07:54.788Z,167.89
2023-05-06T07:08:54.803Z,170.64
2023-05-06T07:09:54.833Z,170.33
2023-05-06T07:10:54.872Z,170.79
2023-05-06T07:11:54.902Z,166.66
2023-05-06T07:12:55.005Z,165.57
2023-05-06T07:13:55.015Z,154.41
2023-05-06T07:14:54.956Z,149.92
2023-05-06T07:15:54.981Z,149.64
2023-05-06T07:16:55.030Z,141.85
2023-05-06T07:17:55.028Z,138.14
2023-05-06T07:18:55.013Z,140.95
2023-05-06T07:19:55.013Z,149.44
2023-05-06T07:20:55.026Z,147.91
2023-05-06T07:21:55.032Z,152.08
2023-05-06T07:22:55.044Z,158.16
2023-05-06T07:23:55.094Z,157.48
2023-05-06T07:24:55.125Z,161.89
2023-05-06T07:25:55.157Z,170.77
2023-05-06T07:26:55.195Z,175.67
2023-05-06T07:27:55.243Z,177.99
2023-05-06T07:28:55.310Z,178.72
2023-05-06T07:29:55.438Z,185.68
2023-05-06T07:30:55.400Z,177.38
2023-05-06T07:31:55.423Z,174.47
2023-05-06T07:32:55.462Z,181.72
2023-05-06T07:33:55.481Z,181.11
2023-05-06T07:34:55.519Z,173.32
2023-05-06T07:35:55.549Z,170.38
2023-05-06T07:36:55.597Z,173.67
2023-05-06T07:37:55.633Z,172.47
2023-05-06T07:38:55.699Z,169.28
2023-05-06T07:39:55.730Z,170.56
2023-05-06T07:40:55.781Z,173.28
2023-05-06T07:41:55.827Z,171.15
2023-05-06T07:42:55.885Z,172.07
2023-05-06T07:43:55.952Z,175.70
2023-05-06T07:44:55.974Z,173.64
2023-05-06T07:45:56.117Z,170.58
2023-05-06T07:46:56.172Z,167.54
2023-05-06T07:47:56.154Z,165.80
2023-05-06T07:48:56.190Z,168.00
2023-05-06T07:49:56.244Z,169.69
2023-05-06T07:50:56.284Z,170.73
2023-05-06T07:51:56.309Z,172.47
2023-05-06T07:52:56.324Z,169.23
2023-05-06T07:53:56.371Z,174.89
2023-05-06T07:54:56.394Z,172.98
2023-05-06T07:55:56.422Z,168.83
2023-05-06T07:56:56.442Z,170.36
2023-05-06T07:57:56.467Z,175.54
2023-05-06T07:58:56.503Z,168.43
2023-05-06T07:59:56.534Z,163.54
2023-05-06T08:00:56.562Z,161.74
2023-05-06T08:01:56.593Z,165.84
2023-05-06T08:02:56.715Z,159.35
2023-05-06T08:03:56.799Z,154.84
2023-05-06T08:04:56.809Z,157.61
2023-05-06T08:05:56.745Z,159.52
2023-05-06T08:06:56.728Z,156.87
2023-05-06T08:07:56.734Z,153.50
2023-05-06T08:08:56.759Z,153.14
2023-05-06T08:09:56.787Z,153.76
2023-05-06T08:10:56.806Z,146.75
2023-05-06T08:11:56.835Z,148.99
2023-05-06T08:12:56.890Z,145.26
2023-05-06T08:13:56.869Z,146.64
2023-05-06T08:14:56.876Z,150.56
2023-05-06T08:15:56.928Z,149.49
2023-05-06T08:16:56.914Z,146.12
2023-05-06T08:17:58.723Z,147.11
2023-05-06T08:18:56.974Z,153.19
2023-05-06T08:19:56.941Z,152.19
2023-05-06T08:20:56.974Z,146.99
2023-05-06T08:21:56.931Z,144.76
2023-05-06T08:22:56.924Z,148.08
2023-05-06T08:23:56.912Z,145.56
2023-05-06T08:24:56.944Z,139.15
2023-05-06T08:25:56.901Z,139.93
2023-05-06T08:26:56.909Z,135.19
2023-05-06T08:27:56.902Z,137.56
2023-05-06T08:28:56.876Z,134.70
2023-05-06T08:29:56.884Z,130.77
2023-05-06T08:30:56.887Z,130.80
2023-05-06T08:31:56.907Z,123.61
2023-05-06T08:32:56.908Z,119.97
2023-05-06T08:33:56.964Z,119.72
2023-05-06T08:34:56.873Z,121.79
2023-05-06T08:35:56.843Z,118.47
2023-05-06T08:36:56.871Z,113.37
2023-05-06T08:37:56.814Z,116.00
2023-05-06T08:38:56.827Z,112.33
2023-05-06T08:39:58.155Z,112.99
2023-05-06T08:40:56.839Z,113.22
2023-05-06T08:41:56.819Z,113.75
2023-05-06T08:42:56.781Z,115.33
2023-05-06T08:43:56.804Z,113.54
2023-05-06T08:44:56.790Z,116.09
2023-05-06T08:45:56.827Z,116.06
2023-05-06T08:46:56.755Z,112.65
2023-05-06T08:47:56.787Z,114.54
2023-05-06T08:48:56.761Z,111.49
2023-05-06T08:49:56.783Z,115.55
2023-05-06T08:50:57.034Z,116.34
2023-05-06T08:51:56.714Z,116.67
2023-05-06T08:52:56.700Z,113.20
2023-05-06T08:53:56.717Z,114.95
2023-05-06T08:54:56.699Z,116.37
2023-05-06T08:55:56.699Z,115.38
2023-05-06T08:56:56.688Z,118.85
2023-05-06T08:57:56.677Z,122.73
2023-05-06T08:58:56.657Z,122.83
2023-05-06T08:59:56.671Z,116.30
2023-05-06T09:00:56.671Z,123.70
2023-05-06T09:01:56.699Z,124.17
2023-05-06T09:02:56.742Z,123.90
2023-05-06T09:03:56.674Z,130.80
2023-05-06T09:04:56.635Z,132.03
2023-05-06T09:05:56.622Z,131.34
2023-05-06T09:06:56.610Z,128.73
2023-05-06T09:07:56.618Z,129.77
2023-05-06T09:08:56.615Z,128.53
2023-05-06T09:09:56.579Z,132.00
2023-05-06T09:10:56.573Z,131.86
2023-05-06T09:11:56.549Z,135.46
2023-05-06T09:12:56.586Z,134.78
2023-05-06T09:13:56.538Z,138.32
2023-05-06T09:14:56.578Z,141.33
2023-05-06T09:15:56.525Z,142.15
2023-05-06T09:16:56.581Z,143.28
2023-05-06T09:17:56.633Z,142.50
2023-05-06T09:18:56.506Z,138.64
2023-05-06T09:19:56.565Z,130.36
2023-05-06T09:20:57.395Z,135.46
2023-05-06T09:21:56.490Z,132.78
2023-05-06T09:22:56.503Z,131.22
2023-05-06T09:23:56.523Z,123.97
2023-05-06T09:24:56.563Z,110.61
2023-05-06T09:25:56.456Z,114.13
2023-05-06T09:26:56.470Z,107.56
2023-05-06T09:27:56.452Z,106.47
2023-05-06T09:28:56.457Z,102.24
2023-05-06T09:29:56.424Z,94.46
2023-05-06T09:30:56.465Z,98.21
2023-05-06T09:31:56.478Z,97.85
2023-05-06T09:32:56.430Z,101.23
2023-05-06T09:33:56.447Z,96.97
2023-05-06T09:34:56.402Z,83.94
2023-05-06T09:35:56.385Z,88.25
2023-05-06T09:36:56.375Z,78.88
2023-05-06T09:37:56.379Z,75.97
2023-05-06T09:38:56.423Z,78.37
2023-05-06T09:39:56.381Z,65.70
2023-05-06T09:40:56.397Z,62.15
2023-05-06T09:41:56.410Z,57.23
2023-05-06T09:42:56.426Z,62.12
2023-05-06T09:43:56.420Z,60.20
2023-05-06T09:44:56.865Z,60.36
2023-05-06T09:45:56.507Z,68.78
2023-05-06T09:46:56.490Z,76.40
2023-05-06T09:47:56.521Z,82.82
2023-05-06T09:48:56.539Z,74.64
2023-05-06T09:49:56.567Z,81.57
2023-05-06T09:50:57.454Z,88.85
2023-05-06T09:51:56.687Z,94.82
2023-05-06T09:52:56.787Z,100.10
2023-05-06T09:53:56.785Z,100.88
2023-05-06T09:54:56.861Z,113.64
2023-05-06T09:55:56.896Z,114.26
2023-05-06T09:56:57.839Z,114.31
2023-05-06T09:57:56.970Z,121.71
2023-05-06T09:58:57.031Z,120.98
2023-05-06T09:59:57.071Z,127.31
2023-05-06T10:00:57.131Z,130.61
2023-05-06T10:01:57.203Z,132.27
2023-05-06T10:02:57.349Z,133.76
2023-05-06T10:03:57.455Z,134.17
2023-05-06T10:04:57.704Z,134.82
2023-05-06T10:05:57.431Z,131.57
2023-05-06T10:06:57.477Z,134.24
2023-05-06T10:07:57.522Z,130.37
2023-05-06T10:08:57.569Z,139.76
2023-05-06T10:09:57.655Z,134.98
2023-05-06T10:10:57.655Z,136.53
2023-05-06T10:11:57.672Z,139.30
2023-05-06T10:12:57.716Z,133.52
2023-05-06T10:13:57.740Z,146.36
2023-05-06T10:14:57.775Z,157.54
2023-05-06T10:15:57.867Z,167.29
2023-05-06T10:16:57.827Z,162.78
2023-05-06T10:17:57.894Z,157.40
2023-05-06T10:18:57.893Z,162.27
2023-05-06T10:19:57.918Z,169.38
2023-05-06T10:20:57.947Z,177.81
2023-05-06T10:21:57.997Z,180.66
2023-05-06T10:22:58.026Z,177.46
2023-05-06T10:23:58.055Z,176.07
2023-05-06T10:24:58.092Z,178.07
2023-05-06T10:25:58.182Z,171.78
2023-05-06T10:26:58.175Z,169.84
2023-05-06T10:27:58.220Z,170.28
2023-05-06T10:28:58.260Z,162.23
2023-05-06T10:29:58.307Z,161.24
2023-05-06T10:30:58.338Z,163.62
2023-05-06T10:31:58.426Z,161.05
2023-05-06T10:32:58.470Z,153.26
2023-05-06T10:33:58.457Z,151.88
2023-05-06T10:34:58.490Z,142.03
2023-05-06T10:35:58.548Z,125.97
2023-05-06T10:36:58.586Z,133.86
2023-05-06T10:37:58.625Z,136.23
2023-05-06T10:38:58.652Z,134.88
2023-05-06T10:39:58.692Z,129.62
2023-05-06T10:40:58.757Z,133.33
2023-05-06T10:41:58.789Z,134.44
2023-05-06T10:42:58.842Z,137.82
2023-05-06T10:43:58.868Z,137.61
2023-05-06T10:44:58.932Z,128.77
2023-05-06T10:45:59.012Z,124.45
2023-05-06T10:46:58.985Z,132.52
2023-05-06T10:47:59.056Z,135.85
2023-05-06T10:48:59.073Z,132.56
2023-05-06T10:49:59.092Z,131.40
2023-05-06T10:50:59.129Z,126.16
2023-05-06T10:51:59.164Z,121.23
2023-05-06T10:52:59.224Z,116.86
2023-05-06T10:53:59.267Z,111.95
2023-05-06T10:54:59.301Z,106.77
2023-05-06T10:55:59.312Z,108.71
2023-05-06T10:56:59.391Z,104.56
2023-05-06T10:57:59.472Z,103.15
2023-05-06T10:58:59.460Z,98.95
2023-05-06T10:59:59.491Z,107.14
2023-05-06T11:00:59.580Z,102.52
2023-05-06T11:01:59.576Z,100.26
2023-05-06T11:02:59.626Z,93.12
2023-05-06T11:03:59.646Z,91.82
2023-05-06T11:04:59.705Z,89.48
2023-05-06T11:05:59.726Z,87.70
2023-05-06T11:06:59.786Z,78.49
2023-05-06T11:07:59.819Z,77.48
2023-05-06T11:08:59.859Z,73.00
2023-05-06T11:09:59.935Z,64.14
2023-05-06T11:10:59.955Z,60.19
2023-05-06T11:11:59.974Z,58.61
2023-05-06T11:13:00.088Z,46.35
2023-05-06T11:14:00.214Z,31.21
2023-05-06T11:15:00.131Z,37.03
2023-05-06T11:16:00.183Z,28.25
2023-05-06T11:17:00.307Z,28.43
2023-05-06T11:18:00.266Z,29.91
2023-05-06T11:19:00.264Z,36.85
2023-05-06T11:20:00.315Z,23.66
2023-05-06T11:21:00.352Z,27.36
2023-05-06T11:22:00.408Z,42.94
2023-05-06T11:23:00.428Z,32.61
2023-05-06T11:24:00.478Z,31.40
2023-05-06T11:25:00.507Z,42.63
2023-05-06T11:26:00.539Z,55.29
2023-05-06T11:27:00.584Z,60.47
2023-05-06T11:28:00.589Z,50.98
2023-05-06T11:29:00.620Z,55.28
2023-05-06T11:30:00.790Z,52.75
2023-05-06T11:31:00.771Z,47.33
2023-05-06T11:32:00.737Z,52.67
2023-05-06T11:33:01.466Z,56.93
2023-05-06T11:34:00.789Z,48.72
2023-05-06T11:35:00.800Z,66.72
2023-05-06T11:36:00.867Z,66.95
2023-05-06T11:37:00.825Z,75.27
2023-05-06T11:38:00.889Z,64.44
2023-05-06T11:39:01.984Z,54.60
2023-05-06T11:40:00.936Z,57.68
2023-05-06T11:41:00.969Z,71.14
2023-05-06T11:42:00.973Z,66.24
2023-05-06T11:43:00.982Z,66.55
2023-05-06T11:44:01.001Z,74.78
2023-05-06T11:45:01.017Z,80.46
2023-05-06T11:46:01.118Z,79.47
2023-05-06T11:47:01.053Z,74.73
2023-05-06T11:48:01.150Z,81.43
2023-05-06T11:49:01.113Z,94.42
2023-05-06T11:50:01.128Z,89.16
2023-05-06T11:51:01.160Z,87.60
2023-05-06T11:52:01.199Z,95.20
2023-05-06T11:53:01.209Z,92.84
2023-05-06T11:54:01.212Z,80.38
2023-05-06T11:55:01.227Z,75.37
2023-05-06T11:56:01.267Z,92.39
2023-05-06T11:57:01.256Z,108.04
2023-05-06T11:58:01.308Z,106.29
2023-05-06T11:59:01.331Z,97.11
2023-05-06T12:00:01.342Z,93.36
2023-05-06T12:01:01.413Z,83.75
2023-05-06T12:02:01.437Z,86.32
2023-05-06T12:03:01.435Z,97.87
2023-05-06T12:04:01.536Z,86.31
2023-05-06T12:05:01.479Z,85.95
2023-05-06T12:06:01.503Z,82.32
2023-05-06T12:07:01.505Z,67.30
2023-05-06T12:08:01.492Z,67.00
2023-05-06T12:09:01.516Z,65.12
2023-05-06T12:10:01.550Z,52.58
2023-05-06T12:11:01.567Z,64.30
2023-05-06T12:12:01.581Z,58.34
2023-05-06T12:13:01.650Z,40.19
2023-05-06T12:14:01.616Z,51.14
2023-05-06T12:15:01.665Z,65.28
2023-05-06T12:16:01.753Z,58.98
2023-05-06T12:17:01.689Z,52.23
2023-05-06T12:18:01.928Z,56.22
2023-05-06T12:19:01.760Z,50.99
2023-05-06T12:20:01.747Z,36.10
2023-05-06T12:21:01.789Z,38.47
2023-05-06T12:22:01.804Z,35.03
2023-05-06T12:23:01.842Z,30.39
2023-05-06T12:24:01.875Z,28.46
2023-05-06T12:25:01.876Z,41.35
2023-05-06T12:26:01.904Z,38.53
2023-05-06T12:27:01.957Z,36.07
2023-05-06T12:28:01.957Z,27.78
2023-05-06T12:29:01.965Z,27.07
2023-05-06T12:30:02.023Z,26.13
2023-05-06T12:31:02.062Z,25.55
2023-05-06T12:32:02.078Z,24.04
2023-05-06T12:33:02.160Z,38.47
2023-05-06T12:34:02.198Z,26.96
2023-05-06T12:35:02.136Z,33.59
2023-05-06T12:36:02.129Z,37.93
2023-05-06T12:37:02.168Z,31.96
2023-05-06T12:38:02.196Z,25.71